Terminal Aerodrome Forecast
Issued by NWS Wilmington, OH

Current Version | Previous Version | Graphics & Text | Print | Product List | Glossary On
Versions: 1 2 3 4 5 6 7 8 9 10 11 12 13 14 15 16 17 18 19 20
000
FTUS41 KILN 181139
TAFCMH
TAF
KCMH 181139Z 1812/1912 18006KT P6SM SCT150 BKN250
     FM181400 21009KT P6SM BKN200
     FM182200 22010KT P6SM BKN050
     FM190300 23006KT P6SM SCT012 OVC025
     FM190600 25004KT P6SM BKN011=

USA.gov is the U.S. government's official web portal to all federal, state and local government web resources and services.